Camarillo, CA

8:21 AM PST on February 28, 2015 (GMT -0800)
Temple and Ponderosa | Change Station
CLOSE
Current Station
Personal Weather Station
Location: Camarillo, CA
Elevation: 174 ft
Nearby Weather Stations

Elev 174 ft 34.23 °N, 119.03 °W | Updated 19 seconds ago

Clear
Clear
51.0 °F
Feels Like 51.0 °F
N
1.0
Wind Variable Wind from ENE
Gusts 3.0 mph

Today
High -- | Low -- °F
--% Chance of Precip.
Yesterday
High -- | Low -- °F
Precip. -- in
6:26 AM 5:51 PM
Waxing Gibbous, 78% visible
Pressure 29.85 in
Visibility 10.0 miles
Clouds Clear
Dew Point 46 °F
Humidity 83%
Rainfall 0.00 in
Snow Depth Not available.
UV 1 out of 12
Pollen 8.30 out of 12
Air Quality Not available.
Flu Activity Not available.
METAR KCMA 281555Z 09003KT 10SM CLR 12/07 A2982 RMK AO2 SLP107 T01170072

More Conditions Fewer Conditions

Pressure 29.85 in
Visibility 10.0 miles
Clouds Clear
Dew Point 46 °F
Humidity 83%
Rainfall 0.00 in
Snow Depth Not available.
UV 1 out of 12
Pollen 8.30 out of 12
Air Quality Not available.
Flu Activity Not available.
METAR KCMA 281555Z 09003KT 10SM CLR 12/07 A2982 RMK AO2 SLP107 T01170072

More Conditions Fewer Conditions

10-Day Weather Forecast

Almanac

Astronomy

Feb. 28, 2015 Rise Set
Actual Time
Civil Twilight
Nautical Twilight
Astronomical Twilight
Moon
Length of Visible Light
Length of Day
Tomorrow will be .
, % of the Moon is Illuminated

Today's Extremes

State Highs State Lows

Community

WunderPhotos

Upload Photos

1,801,075 photos uploaded!

WunderBlogs® & News

Nearby

Air Quality

  Air Quality AQ Index Pollutant
Not available.

Snow Depth

Station Depth Elevation

Earthquake Activity

City Distance Mag. Time & Date
Minimum magnitude displayed is 2.5.

Coastal Water Temperatures

Place Temperature

Nearby Weather Stations